Time;durP1;ratioP1;P1;durP2;ratioP2;P2;SDS_P1;SDS_P2;PMS_P1;PMS_P2;Temp;Humidity;BMP_temperature;BMP_pressure;BME280_temperature;BME280_humidity;BME280_pressure;Samples;Min_cycle;Max_cycle;Signal;HPM_P1;HPM_P2
2022/07/21 00:02:18;;;;;;;19.58;16.35;;;;;;;;;;5049430;28;20371;-59
2022/07/21 00:04:45;;;;;;;17.25;15.55;;;;;;;;;;5049886;28;20103;-59
2022/07/21 00:07:17;;;;;;;20.67;18.52;;;;;;;;;;5051379;28;20032;-59
2022/07/21 00:09:56;;;;;;;16.80;15.10;;;;;;;;;;5051514;28;20532;-59
2022/07/21 00:12:39;;;;;;;17.20;15.60;;;;;;;;;;5055219;28;20039;-59
2022/07/21 00:15:06;;;;;;;18.23;15.68;;;;;;;;;;5053769;28;20037;-59
2022/07/21 00:17:45;;;;;;;16.33;14.45;;;;;;;;;;5055733;28;20425;-59
2022/07/21 00:20:27;;;;;;;15.38;14.00;;;;;;;;;;5053235;28;20108;-59
2022/07/21 00:23:11;;;;;;;16.80;15.30;;;;;;;;;;5055863;28;20071;-59
2022/07/21 00:25:49;;;;;;;18.17;16.25;;;;;;;;;;5038773;28;20347;-59
2022/07/21 00:28:18;;;;;;;16.73;14.55;;;;;;;;;;5055521;28;20036;-59
2022/07/21 00:30:50;;;;;;;16.33;14.73;;;;;;;;;;5054135;28;20060;-59
2022/07/21 00:36:05;;;;;;;15.75;14.13;;;;;;;;;;5053582;28;20063;-59
2022/07/21 00:38:41;;;;;;;19.60;17.52;;;;;;;;;;5055060;28;20601;-59
2022/07/21 00:41:16;;;;;;;18.88;17.13;;;;;;;;;;5053787;28;20033;-59
2022/07/21 00:43:57;;;;;;;18.25;16.45;;;;;;;;;;5053526;28;20024;-59
2022/07/21 00:46:37;;;;;;;18.20;16.55;;;;;;;;;;5055229;28;20029;-59
2022/07/21 00:49:20;;;;;;;16.73;14.75;;;;;;;;;;5054977;28;20431;-59
2022/07/21 00:51:49;;;;;;;18.20;16.55;;;;;;;;;;5033980;28;20032;-59
2022/07/21 00:54:22;;;;;;;20.05;16.45;;;;;;;;;;5035297;28;20037;-59
2022/07/21 00:56:54;;;;;;;18.85;16.50;;;;;;;;;;5035034;28;20419;-59
2022/07/21 00:59:42;;;;;;;17.17;15.48;;;;;;;;;;5033793;28;20368;-59
2022/07/21 01:02:36;;;;;;;16.65;15.10;;;;;;;;;;5033989;28;20114;-59
2022/07/21 01:05:14;;;;;;;17.13;15.43;;;;;;;;;;5033201;28;20033;-59
2022/07/21 01:07:48;;;;;;;19.40;15.90;;;;;;;;;;5033096;28;20040;-59
2022/07/21 01:10:15;;;;;;;17.95;16.15;;;;;;;;;;5033799;28;20038;-59
2022/07/21 01:12:58;;;;;;;19.58;17.40;;;;;;;;;;5035025;28;20040;-59
2022/07/21 01:15:27;;;;;;;16.75;15.13;;;;;;;;;;5034576;28;20018;-59
2022/07/21 01:17:57;;;;;;;17.77;15.87;;;;;;;;;;5034372;28;20053;-59
2022/07/21 01:20:27;;;;;;;17.40;15.40;;;;;;;;;;5033797;28;20139;-59
2022/07/21 01:25:56;;;;;;;15.25;13.75;;;;;;;;;;5035203;28;20045;-59
2022/07/21 01:28:41;;;;;;;14.35;12.90;;;;;;;;;;5034434;28;20475;-59
2022/07/21 01:31:25;;;;;;;15.10;13.63;;;;;;;;;;5033491;28;20068;-59
2022/07/21 01:33:54;;;;;;;14.55;12.90;;;;;;;;;;5034662;28;20021;-59
2022/07/21 01:36:26;;;;;;;15.30;13.85;;;;;;;;;;5034291;28;20508;-59
2022/07/21 01:44:44;;;;;;;14.23;12.80;;;;;;;;;;5034209;28;20394;-59
2022/07/21 01:47:22;;;;;;;13.35;12.05;;;;;;;;;;5034007;28;20052;-59
2022/07/21 01:52:44;;;;;;;13.75;11.65;;;;;;;;;;5033422;28;20090;-59
2022/07/21 01:55:16;;;;;;;12.63;11.23;;;;;;;;;;5048748;28;20137;-59
2022/07/21 01:57:45;;;;;;;12.13;10.98;;;;;;;;;;5048939;28;20352;-59
2022/07/21 02:00:22;;;;;;;11.13;10.02;;;;;;;;;;5032611;28;20033;-59
2022/07/21 02:02:51;;;;;;;12.05;10.88;;;;;;;;;;5049163;28;20017;-59
2022/07/21 02:05:26;;;;;;;11.18;9.88;;;;;;;;;;5033880;28;20029;-59
2022/07/21 02:07:59;;;;;;;10.63;9.65;;;;;;;;;;5033649;28;20017;-59
2022/07/21 02:10:31;;;;;;;13.27;9.70;;;;;;;;;;5033013;28;20080;-59
2022/07/21 02:13:03;;;;;;;9.90;8.95;;;;;;;;;;5033488;28;20025;-59
2022/07/21 02:15:33;;;;;;;10.73;9.73;;;;;;;;;;5045216;28;20042;-59
2022/07/21 02:18:06;;;;;;;9.95;8.95;;;;;;;;;;5033227;28;20021;-59
2022/07/21 02:20:44;;;;;;;9.80;8.85;;;;;;;;;;5031976;28;20391;-59
2022/07/21 02:23:18;;;;;;;14.57;9.63;;;;;;;;;;5031915;28;20056;-59
2022/07/21 02:25:55;;;;;;;9.35;8.45;;;;;;;;;;5033536;28;20112;-59
2022/07/21 02:28:45;;;;;;;10.20;9.20;;;;;;;;;;5033272;28;20061;-59
2022/07/21 02:31:22;;;;;;;9.77;8.80;;;;;;;;;;5032234;28;20048;-59
2022/07/21 02:34:07;;;;;;;9.35;8.52;;;;;;;;;;5032186;28;20029;-59
2022/07/21 02:36:46;;;;;;;11.98;9.63;;;;;;;;;;5033337;28;20101;-59
2022/07/21 02:39:26;;;;;;;9.18;8.30;;;;;;;;;;5048445;28;20029;-59
2022/07/21 02:41:59;;;;;;;9.20;8.30;;;;;;;;;;5032680;28;20049;-59
2022/07/21 02:44:31;;;;;;;9.50;8.40;;;;;;;;;;5048179;28;20032;-59
2022/07/21 02:47:14;;;;;;;;;;;;;;;;;;;;;
2022/07/21 02:49:57;;;;;;;9.77;8.88;;;;;;;;;;5036810;28;20500;-59
2022/07/21 02:52:30;;;;;;;9.98;8.63;;;;;;;;;;5053098;28;20120;-59
2022/07/21 02:55:02;;;;;;;8.70;7.80;;;;;;;;;;5053654;28;20475;-59
2022/07/21 02:57:34;;;;;;;9.75;8.80;;;;;;;;;;5053516;28;20029;-59
2022/07/21 03:00:21;;;;;;;9.43;8.52;;;;;;;;;;5052317;28;20120;-59
2022/07/21 03:02:53;;;;;;;9.70;8.70;;;;;;;;;;5052791;28;20430;-59
2022/07/21 03:08:12;;;;;;;9.50;8.27;;;;;;;;;;5054322;28;20029;-61
2022/07/21 03:10:55;;;;;;;9.10;7.85;;;;;;;;;;5048569;28;20051;-59
2022/07/21 03:13:28;;;;;;;8.77;7.88;;;;;;;;;;5052119;28;20036;-59
2022/07/21 03:16:06;;;;;;;9.75;8.02;;;;;;;;;;5052612;28;20023;-59
2022/07/21 03:18:50;;;;;;;9.25;8.43;;;;;;;;;;5052688;28;20025;-59
2022/07/21 03:21:16;;;;;;;7.88;7.10;;;;;;;;;;5052277;28;20116;-59
2022/07/21 03:23:46;;;;;;;9.18;7.82;;;;;;;;;;5052289;28;20040;-58
2022/07/21 03:26:38;;;;;;;8.30;7.38;;;;;;;;;;5052862;28;20032;-59
2022/07/21 03:29:02;;;;;;;9.60;8.35;;;;;;;;;;5052377;28;20033;-59
2022/07/21 03:31:37;;;;;;;8.93;8.00;;;;;;;;;;5045382;28;20028;-59
2022/07/21 03:34:17;;;;;;;10.02;8.50;;;;;;;;;;5045897;28;20447;-59
2022/07/21 03:36:53;;;;;;;;;;;;;;;;;;5048563;28;20021;-59
2022/07/21 03:39:36;;;;;;;10.00;7.30;;;;;;;;;;5038191;28;19912;-59
2022/07/21 03:42:17;;;;;;;8.00;7.20;;;;;;;;;;5036603;28;20172;-59
2022/07/21 03:44:48;;;;;;;;;;;;;;;;;;5048632;28;20025;-59
2022/07/21 03:47:29;;;;;;;7.97;7.18;;;;;;;;;;5043903;28;19928;-59
2022/07/21 03:49:58;;;;;;;9.25;8.02;;;;;;;;;;5038704;28;20125;-59
2022/07/21 03:52:33;;;;;;;8.63;7.65;;;;;;;;;;5050168;28;20033;-59
2022/07/21 03:55:10;;;;;;;8.30;7.50;;;;;;;;;;5042090;28;20028;-59
2022/07/21 03:57:57;;;;;;;10.73;8.55;;;;;;;;;;5047083;28;20025;-59
2022/07/21 04:00:48;;;;;;;10.10;7.05;;;;;;;;;;5039000;28;20564;-59
2022/07/21 04:03:25;;;;;;;7.53;6.85;;;;;;;;;;5043355;28;20031;-59
2022/07/21 04:06:00;;;;;;;9.20;8.27;;;;;;;;;;5035215;28;20033;-59
2022/07/21 04:08:28;;;;;;;11.13;7.68;;;;;;;;;;5045854;28;20029;-59
2022/07/21 04:17:02;;;;;;;;;;;;;;;;;;;;;
2022/07/21 04:19:29;;;;;;;8.48;7.63;;;;;;;;;;5051029;28;20025;-59
2022/07/21 04:22:08;;;;;;;8.65;7.75;;;;;;;;;;5050200;28;20086;-59
2022/07/21 04:24:37;;;;;;;7.55;6.75;;;;;;;;;;5048880;28;20044;-59
2022/07/21 04:27:15;;;;;;;8.25;7.45;;;;;;;;;;5049090;28;20467;-59
2022/07/21 04:29:47;;;;;;;7.93;7.18;;;;;;;;;;5050934;28;20111;-59
2022/07/21 04:32:28;;;;;;;;;;;;;;;;;;;;;
2022/07/21 04:34:58;;;;;;;8.38;7.20;;;;;;;;;;5034899;28;20039;-59
2022/07/21 04:40:27;;;;;;;8.20;7.23;;;;;;;;;;5037485;28;20512;-59
2022/07/21 04:43:13;;;;;;;8.65;7.70;;;;;;;;;;5050326;28;20025;-59
2022/07/21 04:45:42;;;;;;;11.13;8.57;;;;;;;;;;5051319;28;20029;-59
2022/07/21 04:48:23;;;;;;;11.30;8.32;;;;;;;;;;5050620;28;20036;-59
2022/07/21 04:51:01;;;;;;;;;;;;;;;;;;5049347;28;20029;-59
2022/07/21 04:53:42;;;;;;;9.57;7.75;;;;;;;;;;5047913;28;20056;-59
2022/07/21 04:56:08;;;;;;;8.90;7.80;;;;;;;;;;5046009;28;20078;-59
2022/07/21 04:58:38;;;;;;;8.35;7.53;;;;;;;;;;5054626;28;20469;-58
2022/07/21 05:01:30;;;;;;;7.50;6.60;;;;;;;;;;5030345;28;20042;-58
2022/07/21 05:04:01;;;;;;;9.93;7.38;;;;;;;;;;5034394;28;20029;-58
2022/07/21 05:06:28;;;;;;;10.27;7.65;;;;;;;;;;5034840;28;20051;-58
2022/07/21 05:09:22;;;;;;;8.05;7.22;;;;;;;;;;5047133;28;20078;-58
2022/07/21 05:11:54;;;;;;;10.77;8.43;;;;;;;;;;5049224;28;20317;-59
2022/07/21 05:14:36;;;;;;;10.73;7.53;;;;;;;;;;5034537;28;20040;-58
2022/07/21 05:17:20;;;;;;;8.02;7.32;;;;;;;;;;5039498;28;20033;-59
2022/07/21 05:19:54;;;;;;;9.35;7.75;;;;;;;;;;5034091;28;20026;-58
2022/07/21 05:22:25;;;;;;;13.25;8.05;;;;;;;;;;5037286;28;20134;-58
2022/07/21 05:25:06;;;;;;;8.98;7.60;;;;;;;;;;5044693;28;20037;-60
2022/07/21 05:27:44;;;;;;;;;;;;;;;;;;5049792;28;20025;-58
2022/07/21 05:30:24;;;;;;;8.43;7.55;;;;;;;;;;5034248;28;20326;-58
2022/07/21 05:32:59;;;;;;;8.05;7.10;;;;;;;;;;5035716;28;20051;-58
2022/07/21 05:35:34;;;;;;;9.02;7.82;;;;;;;;;;5036634;28;20056;-59
2022/07/21 05:38:13;;;;;;;8.02;7.07;;;;;;;;;;5041580;28;20024;-58
2022/07/21 05:40:42;;;;;;;9.75;7.93;;;;;;;;;;5038882;28;20069;-58
2022/07/21 05:43:14;;;;;;;7.50;6.80;;;;;;;;;;5047176;28;20018;-58
2022/07/21 05:45:49;;;;;;;8.88;7.97;;;;;;;;;;5036038;28;20037;-59
2022/07/21 05:48:15;;;;;;;10.98;7.78;;;;;;;;;;5031408;28;20096;-58
2022/07/21 05:50:43;;;;;;;7.88;7.18;;;;;;;;;;5045778;28;20064;-58
2022/07/21 05:53:18;;;;;;;9.95;8.32;;;;;;;;;;5036977;28;20029;-58
2022/07/21 05:56:01;;;;;;;8.23;7.43;;;;;;;;;;5045163;28;20025;-58
2022/07/21 05:58:39;;;;;;;9.63;7.22;;;;;;;;;;5042941;28;20025;-58
2022/07/21 06:01:16;;;;;;;11.15;8.70;;;;;;;;;;5043040;28;20056;-58
2022/07/21 06:03:47;;;;;;;12.02;8.32;;;;;;;;;;5037863;28;20462;-58
2022/07/21 06:06:16;;;;;;;9.60;8.27;;;;;;;;;;5033344;28;20025;-58
2022/07/21 06:08:46;;;;;;;11.87;9.33;;;;;;;;;;5041828;28;20018;-58
2022/07/21 06:11:14;;;;;;;8.63;7.72;;;;;;;;;;5046091;28;20289;-58
2022/07/21 06:16:56;;;;;;;9.00;7.13;;;;;;;;;;5037789;28;20033;-58
2022/07/21 06:19:41;;;;;;;10.52;8.35;;;;;;;;;;5032516;28;20021;-58
2022/07/21 06:22:13;;;;;;;9.25;8.25;;;;;;;;;;5041010;28;20045;-58
2022/07/21 06:24:59;;;;;;;8.48;7.68;;;;;;;;;;5039818;28;20029;-58
2022/07/21 06:27:41;;;;;;;7.97;7.18;;;;;;;;;;5040264;28;20123;-58
2022/07/21 06:30:07;;;;;;;7.35;6.65;;;;;;;;;;5050707;28;20394;-58
2022/07/21 06:32:47;;;;;;;8.77;7.53;;;;;;;;;;5052530;28;20029;-58
2022/07/21 06:35:32;;;;;;;15.73;8.30;;;;;;;;;;5046720;28;20498;-58
2022/07/21 06:38:08;;;;;;;9.02;8.05;;;;;;;;;;5032065;28;20544;-58
2022/07/21 06:40:34;;;;;;;9.23;8.40;;;;;;;;;;5047072;28;20055;-58
2022/07/21 06:43:34;;;;;;;;;;;;;;;;;;;;;
2022/07/21 06:46:00;;;;;;;9.00;8.13;;;;;;;;;;5028718;28;20037;-58
2022/07/21 06:48:32;;;;;;;8.82;7.93;;;;;;;;;;5051975;28;20025;-58
2022/07/21 06:51:07;;;;;;;8.25;7.43;;;;;;;;;;5040672;28;20573;-58
2022/07/21 06:53:39;;;;;;;8.95;6.28;;;;;;;;;;5030836;28;20033;-58
2022/07/21 06:56:17;;;;;;;7.53;6.65;;;;;;;;;;5032517;28;20418;-58
2022/07/21 07:01:47;;;;;;;9.23;6.65;;;;;;;;;;5040311;28;20399;-58
2022/07/21 07:04:13;;;;;;;6.88;6.25;;;;;;;;;;5050397;28;20025;-58
2022/07/21 07:06:55;;;;;;;8.05;6.70;;;;;;;;;;5049713;28;20478;-58
2022/07/21 07:09:30;;;;;;;8.48;6.38;;;;;;;;;;5048278;28;20478;-58
2022/07/21 07:12:14;;;;;;;6.45;5.72;;;;;;;;;;5042085;28;20042;-58
2022/07/21 07:14:45;;;;;;;6.90;5.70;;;;;;;;;;5033521;28;20112;-58
2022/07/21 07:17:31;;;;;;;5.70;5.18;;;;;;;;;;5048577;28;20067;-58
2022/07/21 07:20:15;;;;;;;6.97;6.25;;;;;;;;;;5050789;28;20013;-58
2022/07/21 07:22:47;;;;;;;8.57;6.47;;;;;;;;;;5030223;28;20037;-58
2022/07/21 07:25:17;;;;;;;7.82;7.03;;;;;;;;;;5033089;28;20041;-58
2022/07/21 07:27:46;;;;;;;7.60;6.80;;;;;;;;;;5031413;28;20458;-58
2022/07/21 07:30:16;;;;;;;7.80;6.82;;;;;;;;;;5044099;28;20048;-58
2022/07/21 07:32:54;;;;;;;6.88;6.25;;;;;;;;;;5051208;28;20036;-58
2022/07/21 07:35:28;;;;;;;8.43;7.30;;;;;;;;;;5050579;28;20377;-58
2022/07/21 07:38:12;;;;;;;7.43;6.28;;;;;;;;;;5039685;28;20025;-58
2022/07/21 07:40:53;;;;;;;7.32;6.57;;;;;;;;;;5042060;28;20033;-58
2022/07/21 07:43:34;;;;;;;6.05;5.38;;;;;;;;;;5049600;28;20032;-59
2022/07/21 07:46:14;;;;;;;6.82;5.63;;;;;;;;;;5042322;28;20089;-58
2022/07/21 07:48:49;;;;;;;6.45;5.72;;;;;;;;;;5051189;28;20650;-59
2022/07/21 07:51:18;;;;;;;9.48;6.45;;;;;;;;;;5050122;28;20032;-59
2022/07/21 07:53:46;;;;;;;10.93;6.53;;;;;;;;;;5051014;28;20029;-58
2022/07/21 07:56:13;;;;;;;8.00;6.82;;;;;;;;;;5049458;28;20021;-58
2022/07/21 07:58:39;;;;;;;7.10;6.30;;;;;;;;;;5049414;28;20467;-59
2022/07/21 08:01:27;;;;;;;8.25;5.68;;;;;;;;;;5050400;28;20116;-59
2022/07/21 08:03:57;;;;;;;6.20;5.50;;;;;;;;;;5049913;28;20113;-59
2022/07/21 08:06:38;;;;;;;11.65;6.22;;;;;;;;;;5051486;28;20021;-58
2022/07/21 08:09:15;;;;;;;;;;;;;;;;;;;;;
2022/07/21 08:11:43;;;;;;;10.38;6.28;;;;;;;;;;5044805;28;20029;-58
2022/07/21 08:14:24;;;;;;;7.72;6.20;;;;;;;;;;5050967;28;20039;-59
2022/07/21 08:16:50;;;;;;;9.32;5.30;;;;;;;;;;5049984;28;20029;-59
2022/07/21 08:19:22;;;;;;;5.60;5.07;;;;;;;;;;5050918;28;20030;-59
2022/07/21 08:21:52;;;;;;;6.80;6.10;;;;;;;;;;5049713;28;20340;-59
2022/07/21 08:24:37;;;;;;;;;;;;;;;;;;;;;
2022/07/21 08:27:04;;;;;;;7.00;6.30;;;;;;;;;;5043944;28;20491;-59
2022/07/21 08:29:40;;;;;;;5.85;5.35;;;;;;;;;;5050910;28;20045;-59
2022/07/21 08:32:19;;;;;;;6.75;5.88;;;;;;;;;;5047037;28;20059;-59
2022/07/21 08:34:54;;;;;;;6.10;5.43;;;;;;;;;;5053254;28;20029;-59
2022/07/21 08:40:18;;;;;;;5.10;4.60;;;;;;;;;;5052203;28;20098;-59
2022/07/21 08:42:51;;;;;;;6.13;4.80;;;;;;;;;;5054533;28;20041;-58
2022/07/21 08:45:27;;;;;;;6.53;5.38;;;;;;;;;;5054944;28;20035;-59
2022/07/21 08:47:56;;;;;;;7.15;4.78;;;;;;;;;;5054928;28;20023;-58
2022/07/21 08:50:38;;;;;;;5.25;4.18;;;;;;;;;;5052070;28;20426;-59
2022/07/21 08:53:05;;;;;;;6.38;4.40;;;;;;;;;;5051571;28;20426;-59
2022/07/21 08:55:54;;;;;;;5.03;4.10;;;;;;;;;;5054597;28;20049;-59
2022/07/21 08:58:25;;;;;;;4.25;3.67;;;;;;;;;;5053587;28;20401;-58
2022/07/21 09:00:54;;;;;;;6.85;4.55;;;;;;;;;;5054178;28;20087;-58
2022/07/21 09:03:33;;;;;;;5.90;4.43;;;;;;;;;;5052697;28;20033;-59
2022/07/21 09:06:21;;;;;;;4.95;4.45;;;;;;;;;;5053503;28;20040;-59
2022/07/21 09:08:53;;;;;;;4.10;3.65;;;;;;;;;;5034376;28;20410;-59
2022/07/21 09:11:25;;;;;;;5.53;4.07;;;;;;;;;;5036123;28;20021;-59
2022/07/21 09:14:18;;;;;;;4.90;4.30;;;;;;;;;;5054246;28;20051;-59
2022/07/21 09:16:51;;;;;;;4.82;3.95;;;;;;;;;;5053765;28;20036;-59
2022/07/21 09:19:18;;;;;;;5.63;4.15;;;;;;;;;;5047893;28;20029;-59
2022/07/21 09:21:57;;;;;;;5.50;4.50;;;;;;;;;;5053080;28;20040;-59
2022/07/21 09:24:39;;;;;;;4.50;3.95;;;;;;;;;;5054205;28;20025;-60
2022/07/21 09:27:14;;;;;;;6.30;4.15;;;;;;;;;;5052455;28;20033;-59
2022/07/21 09:29:44;;;;;;;4.35;3.85;;;;;;;;;;5054227;28;20416;-59
2022/07/21 09:32:27;;;;;;;5.20;4.68;;;;;;;;;;5050951;28;20032;-59
2022/07/21 09:35:00;;;;;;;5.10;4.60;;;;;;;;;;5052479;28;20056;-59
2022/07/21 09:37:33;;;;;;;5.30;4.50;;;;;;;;;;5052452;28;20082;-59
2022/07/21 09:40:07;;;;;;;7.38;4.65;;;;;;;;;;5051526;28;20094;-59
2022/07/21 09:42:41;;;;;;;5.57;3.78;;;;;;;;;;5035882;28;20029;-59
2022/07/21 09:45:11;;;;;;;7.53;4.07;;;;;;;;;;5049868;28;20029;-59
2022/07/21 09:47:38;;;;;;;;;;;;;;;;;;5051553;28;20074;-59
2022/07/21 09:50:07;;;;;;;4.10;3.58;;;;;;;;;;5052767;28;19905;-59
2022/07/21 09:52:35;;;;;;;5.55;4.43;;;;;;;;;;5035240;28;20033;-59
2022/07/21 09:55:07;;;;;;;8.23;4.07;;;;;;;;;;5053281;28;20483;-59
2022/07/21 10:00:34;;;;;;;4.95;3.92;;;;;;;;;;5051342;28;20111;-59
2022/07/21 10:03:07;;;;;;;7.03;4.35;;;;;;;;;;5045844;28;20040;-59
2022/07/21 10:05:33;;;;;;;3.97;3.58;;;;;;;;;;5052054;28;20021;-59
2022/07/21 10:08:06;;;;;;;5.05;4.38;;;;;;;;;;5050977;28;20459;-59
2022/07/21 10:10:33;;;;;;;4.50;4.05;;;;;;;;;;5051186;28;20033;-59
2022/07/21 10:13:04;;;;;;;5.88;3.55;;;;;;;;;;5053177;28;20363;-58
2022/07/21 10:15:30;;;;;;;5.57;4.10;;;;;;;;;;5053396;28;20112;-59
2022/07/21 10:18:04;;;;;;;5.50;3.88;;;;;;;;;;5046618;28;20447;-59
2022/07/21 10:20:34;;;;;;;5.10;4.47;;;;;;;;;;5050280;28;20032;-59
2022/07/21 10:23:01;;;;;;;5.55;3.80;;;;;;;;;;5053091;28;20048;-59
2022/07/21 10:25:44;;;;;;;5.40;4.38;;;;;;;;;;5051577;28;20116;-59
2022/07/21 10:28:24;;;;;;;8.38;4.00;;;;;;;;;;5053036;28;20025;-59
2022/07/21 10:30:54;;;;;;;4.97;3.67;;;;;;;;;;5041259;28;20033;-59
2022/07/21 10:33:40;;;;;;;5.57;2.80;;;;;;;;;;5051673;28;20036;-59
2022/07/21 10:36:33;;;;;;;4.40;2.70;;;;;;;;;;5050944;28;20031;-59
2022/07/21 10:39:13;;;;;;;4.63;2.80;;;;;;;;;;5051273;28;20317;-59
2022/07/21 10:41:39;;;;;;;;;;;;;;;;;;5050909;28;20417;-60
2022/07/21 10:44:24;;;;;;;4.13;2.88;;;;;;;;;;5051189;28;19912;-60
2022/07/21 10:47:05;;;;;;;3.42;2.45;;;;;;;;;;5050155;28;20056;-60
2022/07/21 10:50:00;;;;;;;4.75;3.47;;;;;;;;;;5050520;28;20017;-60
2022/07/21 10:52:39;;;;;;;3.42;2.97;;;;;;;;;;5052526;28;20029;-60
2022/07/21 10:55:11;;;;;;;4.20;2.97;;;;;;;;;;5050952;28;20347;-60
2022/07/21 10:57:39;;;;;;;3.90;3.05;;;;;;;;;;5052270;28;20021;-60
2022/07/21 11:00:24;;;;;;;3.35;2.88;;;;;;;;;;5049195;28;20082;-60
2022/07/21 11:02:52;;;;;;;3.10;2.42;;;;;;;;;;5051838;28;20087;-60
2022/07/21 11:05:18;;;;;;;4.03;2.78;;;;;;;;;;5050572;28;20470;-60
2022/07/21 11:08:06;;;;;;;6.20;3.10;;;;;;;;;;5050043;28;20033;-60
2022/07/21 11:10:33;;;;;;;3.67;2.55;;;;;;;;;;5050954;28;20100;-60
2022/07/21 11:13:17;;;;;;;3.63;2.53;;;;;;;;;;5051619;28;20021;-60
2022/07/21 11:15:56;;;;;;;3.35;2.80;;;;;;;;;;5050350;28;20036;-60
2022/07/21 11:18:25;;;;;;;4.10;2.88;;;;;;;;;;5051726;28;20017;-60
2022/07/21 11:21:05;;;;;;;3.90;3.05;;;;;;;;;;5048754;28;20110;-60
2022/07/21 11:23:48;;;;;;;3.80;2.53;;;;;;;;;;5050811;28;20120;-59
2022/07/21 11:26:15;;;;;;;4.18;3.78;;;;;;;;;;5031992;28;20048;-60
2022/07/21 11:28:45;;;;;;;3.83;2.88;;;;;;;;;;5049887;28;20123;-61
2022/07/21 11:31:29;;;;;;;4.97;3.35;;;;;;;;;;5050683;28;20383;-60
2022/07/21 11:34:01;;;;;;;3.40;2.60;;;;;;;;;;5051767;28;20021;-60
2022/07/21 11:36:32;;;;;;;4.15;3.15;;;;;;;;;;5050586;28;20441;-59
2022/07/21 11:39:09;;;;;;;4.03;3.40;;;;;;;;;;5043103;28;20351;-59
2022/07/21 11:41:36;;;;;;;3.67;2.88;;;;;;;;;;5036203;28;20378;-60
2022/07/21 11:44:03;;;;;;;3.97;3.10;;;;;;;;;;5051831;28;20025;-60
2022/07/21 11:46:44;;;;;;;5.68;3.25;;;;;;;;;;5051619;28;20386;-60
2022/07/21 11:49:14;;;;;;;3.05;2.35;;;;;;;;;;5042030;28;20021;-60
2022/07/21 11:51:46;;;;;;;3.55;2.90;;;;;;;;;;5049395;28;20032;-61
2022/07/21 11:54:27;;;;;;;4.15;2.85;;;;;;;;;;5050109;28;20120;-60
2022/07/21 11:56:54;;;;;;;6.28;3.05;;;;;;;;;;5041452;28;20528;-60
2022/07/21 11:59:22;;;;;;;4.97;3.38;;;;;;;;;;5039704;28;20033;-60
2022/07/21 12:01:51;;;;;;;3.95;2.72;;;;;;;;;;5047389;28;20495;-60
2022/07/21 12:04:29;;;;;;;3.30;2.55;;;;;;;;;;5051308;28;20116;-60
2022/07/21 12:06:55;;;;;;;3.08;2.55;;;;;;;;;;5048523;28;20049;-60
2022/07/21 12:09:22;;;;;;;4.10;3.03;;;;;;;;;;5046377;28;20040;-60
2022/07/21 12:11:52;;;;;;;4.00;2.88;;;;;;;;;;5053286;28;20032;-60
2022/07/21 12:14:26;;;;;;;5.32;2.30;;;;;;;;;;5055550;28;20412;-60
2022/07/21 12:16:53;;;;;;;3.97;2.80;;;;;;;;;;5055447;28;20033;-59
2022/07/21 12:19:21;;;;;;;6.88;2.70;;;;;;;;;;5054916;28;20036;-60
2022/07/21 12:21:51;;;;;;;3.78;3.20;;;;;;;;;;5044955;28;20196;-60
2022/07/21 12:24:27;;;;;;;4.30;2.80;;;;;;;;;;5055397;28;20058;-60
2022/07/21 12:26:53;;;;;;;4.53;3.47;;;;;;;;;;5055228;28;20035;-60
2022/07/21 12:29:29;;;;;;;3.60;2.88;;;;;;;;;;5055187;28;20473;-59
2022/07/21 12:31:58;;;;;;;3.78;2.88;;;;;;;;;;5051710;28;20490;-60
2022/07/21 12:34:24;;;;;;;3.42;3.05;;;;;;;;;;5036884;28;20063;-60
2022/07/21 12:36:51;;;;;;;4.22;3.13;;;;;;;;;;5053107;28;20452;-60
2022/07/21 12:42:10;;;;;;;3.88;2.90;;;;;;;;;;5054178;28;20385;-60
2022/07/21 12:44:37;;;;;;;4.55;3.45;;;;;;;;;;5053821;28;20021;-59
2022/07/21 12:47:22;;;;;;;5.25;2.92;;;;;;;;;;5053073;28;20048;-59
2022/07/21 12:50:05;;;;;;;3.72;2.88;;;;;;;;;;5038700;28;20021;-59
2022/07/21 12:52:41;;;;;;;3.67;2.63;;;;;;;;;;5054496;28;20025;-59
2022/07/21 12:55:08;;;;;;;3.97;3.33;;;;;;;;;;5051033;28;20030;-60
2022/07/21 12:57:34;;;;;;;4.15;3.38;;;;;;;;;;5045914;28;20021;-60
2022/07/21 13:00:00;;;;;;;6.45;3.05;;;;;;;;;;5045665;28;20478;-60
2022/07/21 13:02:29;;;;;;;3.63;3.20;;;;;;;;;;5051557;28;20033;-60
2022/07/21 13:04:58;;;;;;;3.78;3.38;;;;;;;;;;5052665;28;20017;-59
2022/07/21 13:07:28;;;;;;;4.85;3.22;;;;;;;;;;5051251;28;20383;-59
2022/07/21 13:10:01;;;;;;;3.60;3.23;;;;;;;;;;5051781;28;20401;-59
2022/07/21 13:12:28;;;;;;;4.35;3.95;;;;;;;;;;5036797;28;20619;-59
2022/07/21 13:14:54;;;;;;;6.57;4.47;;;;;;;;;;5052961;28;20021;-59
2022/07/21 13:17:21;;;;;;;4.90;4.40;;;;;;;;;;5052686;28;20536;-59
2022/07/21 13:19:47;;;;;;;6.38;4.20;;;;;;;;;;5050174;28;20037;-61
2022/07/21 13:22:16;;;;;;;8.38;5.45;;;;;;;;;;5053901;28;20025;-61
2022/07/21 13:24:48;;;;;;;6.00;4.32;;;;;;;;;;5052891;28;20490;-59
2022/07/21 13:27:14;;;;;;;5.97;4.18;;;;;;;;;;5052638;28;20094;-59
2022/07/21 13:29:45;;;;;;;4.63;4.18;;;;;;;;;;5053835;28;20028;-59
2022/07/21 13:32:11;;;;;;;5.28;4.63;;;;;;;;;;5050619;28;20018;-60
2022/07/21 13:34:38;;;;;;;6.47;4.43;;;;;;;;;;5053944;28;20029;-60
2022/07/21 13:37:04;;;;;;;5.35;3.92;;;;;;;;;;5054120;28;20025;-60
2022/07/21 13:39:32;;;;;;;4.85;4.15;;;;;;;;;;5052919;28;20305;-60
2022/07/21 13:42:04;;;;;;;5.20;4.30;;;;;;;;;;5051789;28;20098;-59
2022/07/21 13:44:31;;;;;;;5.03;4.53;;;;;;;;;;5044772;28;20494;-60
2022/07/21 13:46:57;;;;;;;6.47;4.15;;;;;;;;;;5039841;28;20029;-60
2022/07/21 13:49:24;;;;;;;5.25;4.35;;;;;;;;;;5053702;28;20036;-60
2022/07/21 13:51:50;;;;;;;4.97;4.13;;;;;;;;;;5051441;28;20036;-60
2022/07/21 13:54:16;;;;;;;6.65;4.20;;;;;;;;;;5053956;28;20025;-59
2022/07/21 13:56:45;;;;;;;4.03;3.53;;;;;;;;;;5041831;28;20045;-60
2022/07/21 13:59:14;;;;;;;5.35;4.30;;;;;;;;;;5032229;28;20021;-60
2022/07/21 14:01:40;;;;;;;6.87;4.50;;;;;;;;;;5037180;28;20437;-59
2022/07/21 14:04:07;;;;;;;5.00;3.97;;;;;;;;;;5053822;28;20262;-60
2022/07/21 14:06:38;;;;;;;4.63;4.13;;;;;;;;;;5046662;28;20094;-60
2022/07/21 14:09:07;;;;;;;5.20;4.47;;;;;;;;;;5049010;28;20025;-60
2022/07/21 14:11:35;;;;;;;4.32;3.78;;;;;;;;;;5048225;28;20409;-59
2022/07/21 14:14:01;;;;;;;4.50;3.83;;;;;;;;;;5043130;28;20086;-60
2022/07/21 14:16:33;;;;;;;5.65;4.03;;;;;;;;;;5051748;28;20033;-60
2022/07/21 14:19:05;;;;;;;5.80;4.40;;;;;;;;;;5032178;28;20021;-59
2022/07/21 14:21:34;;;;;;;5.75;4.32;;;;;;;;;;5032411;28;20038;-60
2022/07/21 14:26:51;;;;;;;5.32;4.07;;;;;;;;;;5034586;28;20056;-59
2022/07/21 14:29:18;;;;;;;5.05;4.13;;;;;;;;;;5040340;28;20026;-59
2022/07/21 14:31:50;;;;;;;6.00;4.30;;;;;;;;;;5050660;28;20024;-60
2022/07/21 14:34:16;;;;;;;4.93;3.97;;;;;;;;;;5052753;28;20075;-59
2022/07/21 14:36:43;;;;;;;4.68;3.78;;;;;;;;;;5052526;28;20029;-59
2022/07/21 14:39:11;;;;;;;4.80;3.60;;;;;;;;;;5044853;28;20053;-60
2022/07/21 14:41:41;;;;;;;4.68;3.08;;;;;;;;;;5050143;28;20115;-60
2022/07/21 14:44:10;;;;;;;4.10;3.05;;;;;;;;;;5050869;28;20017;-60
2022/07/21 14:46:38;;;;;;;3.97;3.58;;;;;;;;;;5034710;28;20067;-60
2022/07/21 14:49:04;;;;;;;4.43;3.67;;;;;;;;;;5046530;28;20068;-60
2022/07/21 14:51:30;;;;;;;6.78;4.32;;;;;;;;;;5048918;28;20478;-61
2022/07/21 14:53:59;;;;;;;4.22;3.35;;;;;;;;;;5051573;28;20028;-60
2022/07/21 14:56:25;;;;;;;4.50;3.80;;;;;;;;;;5052588;28;20029;-60
2022/07/21 14:58:51;;;;;;;4.38;3.25;;;;;;;;;;5033213;28;20044;-60
2022/07/21 15:01:20;;;;;;;5.20;3.53;;;;;;;;;;5050322;28;20025;-60
2022/07/21 15:03:46;;;;;;;3.40;2.80;;;;;;;;;;5052282;28;20421;-60
2022/07/21 15:06:15;;;;;;;7.03;3.53;;;;;;;;;;5034790;28;20021;-60
2022/07/21 15:08:41;;;;;;;4.75;4.00;;;;;;;;;;5033710;28;20366;-60
2022/07/21 15:11:08;;;;;;;4.18;3.22;;;;;;;;;;5050294;28;20032;-60
2022/07/21 15:13:37;;;;;;;4.63;3.53;;;;;;;;;;5050942;28;20029;-59
2022/07/21 15:16:06;;;;;;;5.18;3.67;;;;;;;;;;5052175;28;20021;-60
2022/07/21 15:18:32;;;;;;;3.15;2.83;;;;;;;;;;5050053;28;20056;-60
2022/07/21 15:20:59;;;;;;;5.28;3.53;;;;;;;;;;5031356;28;20056;-60
2022/07/21 15:23:25;;;;;;;4.15;3.47;;;;;;;;;;5032254;28;20017;-60
2022/07/21 15:25:51;;;;;;;4.60;3.78;;;;;;;;;;5038224;28;20355;-60
2022/07/21 15:28:17;;;;;;;6.05;3.95;;;;;;;;;;5050663;28;20028;-60
2022/07/21 15:30:44;;;;;;;3.70;3.10;;;;;;;;;;5050320;28;20033;-60
2022/07/21 15:33:13;;;;;;;4.07;3.40;;;;;;;;;;5051779;28;20025;-60
2022/07/21 15:35:39;;;;;;;3.35;2.97;;;;;;;;;;5051541;28;20025;-60
2022/07/21 15:38:11;;;;;;;6.68;3.88;;;;;;;;;;5050984;28;20452;-60
2022/07/21 15:40:37;;;;;;;4.30;3.42;;;;;;;;;;5042389;28;20029;-60
2022/07/21 15:43:06;;;;;;;5.55;3.25;;;;;;;;;;5044779;28;20484;-60
2022/07/21 15:45:32;;;;;;;3.57;3.13;;;;;;;;;;5050662;28;20471;-59
2022/07/21 15:48:00;;;;;;;5.85;3.40;;;;;;;;;;5050892;28;20473;-60
2022/07/21 15:50:29;;;;;;;9.02;4.35;;;;;;;;;;5021343;28;20076;-60
2022/07/21 15:52:55;;;;;;;4.80;4.10;;;;;;;;;;5048604;28;20534;-60
2022/07/21 15:55:24;;;;;;;4.97;3.58;;;;;;;;;;5048196;28;20022;-60
2022/07/21 15:57:50;;;;;;;5.30;3.60;;;;;;;;;;5039909;28;20091;-60
2022/07/21 16:00:19;;;;;;;3.63;2.95;;;;;;;;;;5050785;28;20439;-59
2022/07/21 16:02:48;;;;;;;3.97;3.22;;;;;;;;;;5049390;28;20041;-60
2022/07/21 16:05:18;;;;;;;6.32;3.50;;;;;;;;;;5049090;28;20063;-60
2022/07/21 16:07:45;;;;;;;5.25;2.97;;;;;;;;;;5047051;28;20029;-59